createdAt,value
2022-11-20T00:00:00.903Z,39.5
2022-11-20T00:05:38.832Z,39.4
2022-11-20T00:11:17.603Z,39.4
2022-11-20T00:16:40.004Z,39.3
2022-11-20T00:22:17.514Z,39.3
2022-11-20T00:27:55.688Z,39.3
2022-11-20T00:33:37.207Z,39.2
2022-11-20T00:38:59.962Z,39.2
2022-11-20T00:44:22.559Z,39.1
2022-11-20T00:49:28.625Z,39.1
2022-11-20T00:54:50.725Z,39.1
2022-11-20T00:59:59.364Z,39
2022-11-20T01:10:29.878Z,38.9
2022-11-20T01:16:11.451Z,38.9
2022-11-20T01:21:48.738Z,38.8
2022-11-20T01:27:25.442Z,38.8
2022-11-20T01:32:48.210Z,38.8
2022-11-20T01:38:10.201Z,38.8
2022-11-20T01:43:16.773Z,38.7
2022-11-20T01:48:23.038Z,38.6
2022-11-20T01:53:44.496Z,38.6
2022-11-20T01:59:22.573Z,38.6
2022-11-20T02:09:54.837Z,38.5
2022-11-20T02:15:19.924Z,38.4
2022-11-20T02:20:42.530Z,38.4
2022-11-20T02:26:19.502Z,38.4
2022-11-20T02:31:25.433Z,38.4
2022-11-20T02:37:02.482Z,38.3
2022-11-20T02:42:39.537Z,38.3
2022-11-20T02:48:15.444Z,38.2
2022-11-20T02:53:22.616Z,38.2
2022-11-20T02:58:58.223Z,38.1
2022-11-20T03:04:19.146Z,38.1
2022-11-20T03:09:40.868Z,38.1
2022-11-20T03:15:08.036Z,38.1
2022-11-20T03:20:13.785Z,38
2022-11-20T03:25:20.275Z,37.9
2022-11-20T03:31:03.612Z,37.9
2022-11-20T03:36:40.372Z,37.9
2022-11-20T03:42:02.367Z,37.9
2022-11-20T03:47:23.327Z,37.8
2022-11-20T03:58:11.511Z,37.8
2022-11-20T04:03:03.145Z,37.8
2022-11-20T04:08:40.393Z,37.7
2022-11-20T04:14:17.463Z,37.6
2022-11-20T04:19:40.051Z,37.6
2022-11-20T04:25:23.419Z,37.6
2022-11-20T04:31:00.382Z,37.5
2022-11-20T04:36:05.919Z,37.5
2022-11-20T04:41:42.898Z,37.4
2022-11-20T04:47:20.437Z,37.4
2022-11-20T04:52:57.685Z,37.4
2022-11-20T05:08:51.362Z,37.3
2022-11-20T05:14:29.157Z,37.3
2022-11-20T05:19:53.170Z,37.2
2022-11-20T05:25:15.116Z,37.2
2022-11-20T05:30:53.937Z,37.2
2022-11-20T05:36:31.307Z,37.1
2022-11-20T05:42:10.815Z,37.1
2022-11-20T05:47:35.668Z,37.1
2022-11-20T05:53:12.957Z,37
2022-11-20T05:58:52.000Z,36.9
2022-11-20T06:04:28.756Z,36.8
2022-11-20T06:10:06.483Z,36.8
2022-11-20T06:15:28.163Z,36.8
2022-11-20T06:20:57.017Z,36.8
2022-11-20T06:26:33.917Z,36.7
2022-11-20T06:32:15.800Z,36.6
2022-11-20T06:37:57.160Z,36.6
2022-11-20T06:43:04.690Z,36.6
2022-11-20T06:48:41.802Z,36.6
2022-11-20T06:54:22.750Z,36.5
2022-11-20T07:00:05.261Z,36.4
2022-11-20T07:05:49.522Z,36.3
2022-11-20T07:11:27.020Z,36.2
2022-11-20T07:17:04.357Z,36.1
2022-11-20T07:22:47.788Z,36.1
2022-11-20T07:28:26.386Z,36.1
2022-11-20T07:34:05.750Z,36
2022-11-20T07:39:27.254Z,35.9
2022-11-20T07:44:33.917Z,35.9
2022-11-20T07:50:10.903Z,35.9
2022-11-20T07:55:48.943Z,35.9
2022-11-20T08:01:26.148Z,35.8
2022-11-20T08:06:50.032Z,35.8
2022-11-20T08:12:15.472Z,35.7
2022-11-20T08:17:25.436Z,35.6
2022-11-20T08:23:37.881Z,35.4
2022-11-20T08:28:54.198Z,35.4
2022-11-20T08:34:35.688Z,35.2
2022-11-20T08:40:17.023Z,35.1
2022-11-20T08:45:57.556Z,35.1
2022-11-20T08:51:34.818Z,35
2022-11-20T08:57:11.863Z,34.9
2022-11-20T09:04:05.947Z,34.9
2022-11-20T09:09:43.731Z,35.1
2022-11-20T09:15:28.196Z,35.1
2022-11-20T09:21:08.482Z,35.1
2022-11-20T09:26:46.851Z,35.1
2022-11-20T09:32:09.250Z,35.1
2022-11-20T09:37:35.816Z,35.1
2022-11-20T09:43:12.926Z,35
2022-11-20T09:48:54.898Z,35
2022-11-20T09:54:36.123Z,34.9
2022-11-20T10:00:15.361Z,25.4
2022-11-20T10:05:54.171Z,33.4
2022-11-20T10:12:06.021Z,45.5
2022-11-20T10:17:47.184Z,44.7
2022-11-20T10:23:26.075Z,41.8
2022-11-20T10:29:12.019Z,39.7
2022-11-20T10:35:11.964Z,38.4
2022-11-20T10:40:50.327Z,37.1
2022-11-20T10:46:32.787Z,35.4
2022-11-20T10:52:00.043Z,34.3
2022-11-20T10:57:23.529Z,34
2022-11-20T11:02:46.260Z,33.8
2022-11-20T11:08:24.330Z,33.6
2022-11-20T11:13:46.736Z,33.5
2022-11-20T11:19:08.826Z,33.4
2022-11-20T11:25:00.009Z,33.2
2022-11-20T11:30:22.177Z,32.9
2022-11-20T11:36:06.201Z,32.8
2022-11-20T11:42:04.219Z,32.7
2022-11-20T11:47:43.968Z,32.6
2022-11-20T11:53:07.427Z,32.5
2022-11-20T11:58:04.105Z,32.4
2022-11-20T12:03:29.374Z,32.4
2022-11-20T12:09:23.362Z,32.3
2022-11-20T12:14:45.975Z,32.2
2022-11-20T12:20:08.106Z,32.2
2022-11-20T12:25:46.074Z,31.9
2022-11-20T12:31:23.637Z,31.6
2022-11-20T12:37:07.055Z,31.5
2022-11-20T12:47:20.668Z,31.3
2022-11-20T12:53:26.168Z,31.1
2022-11-20T12:59:03.917Z,31.1
2022-11-20T13:04:43.654Z,30.9
2022-11-20T13:10:07.599Z,30.9
2022-11-20T13:15:48.140Z,30.8
2022-11-20T13:21:25.290Z,30.8
2022-11-20T13:27:08.153Z,30.7
2022-11-20T13:32:45.383Z,30.6
2022-11-20T13:38:23.009Z,30.6
2022-11-20T13:44:03.083Z,30.5
2022-11-20T13:49:45.292Z,30.5
2022-11-20T13:55:22.193Z,30.4
2022-11-20T14:01:01.237Z,30.4
2022-11-20T14:07:07.892Z,30.3
2022-11-20T14:12:45.670Z,30.3
2022-11-20T14:18:30.348Z,30.3
2022-11-20T14:23:52.386Z,30.2
2022-11-20T14:29:30.422Z,30.1
2022-11-20T14:35:08.058Z,30.1
2022-11-20T14:40:45.655Z,30.1
2022-11-20T14:46:23.492Z,30
2022-11-20T14:52:05.302Z,30
2022-11-20T15:03:05.132Z,29.9
2022-11-20T15:14:12.960Z,29.9
2022-11-20T15:24:56.896Z,29.9
2022-11-20T15:30:34.814Z,29.9
2022-11-20T15:36:12.979Z,29.9
2022-11-20T15:41:54.209Z,29.7
2022-11-20T15:47:31.495Z,29.6
2022-11-20T15:57:56.480Z,29.4
2022-11-20T16:03:41.229Z,29.5
2022-11-20T16:09:03.731Z,29.6
2022-11-20T16:14:26.079Z,29.6
2022-11-20T16:20:04.135Z,29.5
2022-11-20T16:25:44.094Z,29.4
2022-11-20T16:31:22.201Z,29.4
2022-11-20T16:36:44.710Z,29.3
2022-11-20T16:47:38.029Z,29.3
2022-11-20T16:53:00.824Z,29.3
2022-11-20T16:58:23.361Z,29.3
2022-11-20T17:04:01.610Z,29.3
2022-11-20T17:09:39.827Z,29.2
2022-11-20T17:15:19.047Z,29.2
2022-11-20T17:20:59.321Z,29.2
2022-11-20T17:26:11.327Z,29.1
2022-11-20T17:31:54.310Z,29.1
2022-11-20T17:37:35.184Z,29.1
2022-11-20T17:42:58.890Z,29.1
2022-11-20T17:48:40.718Z,29.1
2022-11-20T17:54:19.426Z,29.1
2022-11-20T17:59:58.256Z,29.1
2022-11-20T18:05:43.461Z,29
2022-11-20T18:11:22.797Z,29
2022-11-20T18:17:01.007Z,29
2022-11-20T18:22:59.742Z,29
2022-11-20T18:28:25.224Z,29.1
2022-11-20T18:34:16.419Z,29.1
2022-11-20T18:39:38.595Z,29.2
2022-11-20T18:50:24.567Z,29.2
2022-11-20T18:55:46.688Z,29.2
2022-11-20T19:01:32.648Z,29.2
2022-11-20T19:07:13.154Z,29.2
2022-11-20T19:12:36.784Z,29.2
2022-11-20T19:18:16.399Z,29.2
2022-11-20T19:29:02.130Z,29.3
2022-11-20T19:34:46.762Z,29.3
2022-11-20T19:40:31.542Z,29.3
2022-11-20T19:45:54.670Z,29.3
2022-11-20T19:57:12.797Z,29.3
2022-11-20T20:02:43.318Z,29.2
2022-11-20T20:08:21.174Z,29.2
2022-11-20T20:13:46.635Z,29.2
2022-11-20T20:19:09.705Z,29.1
2022-11-20T20:24:46.885Z,29.1
2022-11-20T20:30:09.349Z,29.1
2022-11-20T20:40:38.005Z,29.1
2022-11-20T20:45:44.864Z,29.1
2022-11-20T20:51:23.016Z,29.1
2022-11-20T20:56:47.373Z,29
2022-11-20T21:02:10.798Z,29
2022-11-20T21:12:57.756Z,28.8
2022-11-20T21:18:37.753Z,28.8
2022-11-20T21:24:15.362Z,28.7
2022-11-20T21:29:41.415Z,28.6
2022-11-20T21:35:03.857Z,28.6
2022-11-20T21:40:28.180Z,28.6
2022-11-20T21:46:41.655Z,28.5
2022-11-20T21:52:19.214Z,28.5
2022-11-20T21:57:43.138Z,28.4
2022-11-20T22:03:21.268Z,28.4
2022-11-20T22:08:59.063Z,28.4
2022-11-20T22:14:37.086Z,28.4
2022-11-20T22:26:02.439Z,28.4
2022-11-20T22:31:28.014Z,28.4
2022-11-20T22:36:54.277Z,28.3
2022-11-20T22:48:00.945Z,28.3
2022-11-20T22:53:38.088Z,28.3
2022-11-20T22:59:15.214Z,28.3
2022-11-20T23:04:52.238Z,28.3
2022-11-20T23:10:30.244Z,28.3
2022-11-20T23:16:08.622Z,28.3
2022-11-20T23:21:46.414Z,28.3
2022-11-20T23:27:27.275Z,28.2
2022-11-20T23:32:50.325Z,28.2
2022-11-20T23:38:27.578Z,28.2
2022-11-20T23:44:05.189Z,28.2
2022-11-20T23:49:42.450Z,28.1
2022-11-20T23:55:11.040Z,28.1
